Time;durP1;ratioP1;P1;durP2;ratioP2;P2;SDS_P1;SDS_P2;PMS_P1;PMS_P2;Temp;Humidity;BMP_temperature;BMP_pressure;BME280_temperature;BME280_humidity;BME280_pressure;Samples;Min_cycle;Max_cycle;Signal;HPM_P1;HPM_P2
2021/09/30 00:00:12;;;;;;;;;;;12.00;99.90;;;;;;1886873;76;20120;-72
2021/09/30 00:02:39;;;;;;;;;;;12.00;99.90;;;;;;1884581;76;20128;-73
2021/09/30 00:05:07;;;;;;;;;;;12.00;99.90;;;;;;1873079;76;20187;-72
2021/09/30 00:07:34;;;;;;;;;;;12.10;99.90;;;;;;1879193;76;20444;-72
2021/09/30 00:10:02;;;;;;;;;;;12.10;99.90;;;;;;1901109;75;20172;-71
2021/09/30 00:12:32;;;;;;;;;;;12.00;99.90;;;;;;1921479;75;20404;-71
2021/09/30 00:17:46;;;;;;;;;;;12.10;99.90;;;;;;1891782;75;20464;-73
2021/09/30 00:33:56;;;;;;;;;;;12.10;99.90;;;;;;1893721;75;20210;-74
2021/09/30 00:42:02;;;;;;;;;;;12.10;99.90;;;;;;1889858;75;20175;-74
2021/09/30 00:52:37;;;;;;;;;;;12.10;99.90;;;;;;1887400;75;20219;-74
2021/09/30 00:55:17;;;;;;;;;;;12.00;99.90;;;;;;1878328;76;20177;-73
2021/09/30 01:20:17;;;;;;;;;;;12.10;99.90;;;;;;1887371;76;20382;-71
2021/09/30 01:23:12;;;;;;;;;;;12.00;99.90;;;;;;1890359;75;20214;-71
2021/09/30 01:34:08;;;;;;;;;;;12.10;99.90;;;;;;1761108;81;20217;-72
2021/09/30 01:58:26;;;;;;;;;;;11.90;99.90;;;;;;1889544;74;20131;-72
2021/09/30 02:22:47;;;;;;;;;;;11.70;99.90;;;;;;1882842;76;20151;-73
2021/09/30 02:25:38;;;;;;;;;;;11.70;99.90;;;;;;1893158;74;20304;-72
2021/09/30 02:58:12;;;;;;;;;;;11.60;99.90;;;;;;1891463;76;20164;-73
2021/09/30 03:00:32;;;;;;;;;;;11.60;99.90;;;;;;1889445;76;20445;-72
2021/09/30 03:03:01;;;;;;;;;;;11.50;99.90;;;;;;1888458;76;20176;-72
2021/09/30 03:05:27;;;;;;;;;;;11.60;99.90;;;;;;1896316;74;20167;-72
2021/09/30 03:07:55;;;;;;;;;;;11.50;99.90;;;;;;1891165;75;20197;-71
2021/09/30 03:10:23;;;;;;;;;;;11.60;99.90;;;;;;1891727;76;20179;-71
2021/09/30 03:12:51;;;;;;;;;;;11.60;99.90;;;;;;1880658;76;20487;-71
2021/09/30 03:17:51;;;;;;;;;;;11.60;99.90;;;;;;1891605;76;20411;-72
2021/09/30 03:20:32;;;;;;;;;;;11.50;99.90;;;;;;1890826;76;20366;-73
2021/09/30 03:22:58;;;;;;;;;;;11.60;99.90;;;;;;1886614;76;20518;-74
2021/09/30 03:25:26;;;;;;;;;;;11.60;99.90;;;;;;1890665;76;20163;-73
2021/09/30 03:27:54;;;;;;;;;;;11.50;99.90;;;;;;1891218;74;20404;-74
2021/09/30 03:30:23;;;;;;;;;;;11.40;99.90;;;;;;1893013;76;20116;-73
2021/09/30 03:32:51;;;;;;;;;;;11.50;99.90;;;;;;1892419;76;20128;-73
2021/09/30 03:35:18;;;;;;;;;;;11.50;99.90;;;;;;1891221;76;20163;-73
2021/09/30 03:37:45;;;;;;;;;;;11.40;99.90;;;;;;1891612;74;20182;-73
2021/09/30 03:40:12;;;;;;;;;;;11.40;99.90;;;;;;1891328;76;20116;-73
2021/09/30 03:42:39;;;;;;;;;;;11.40;99.90;;;;;;1900679;74;20183;-73
2021/09/30 03:45:06;;;;;;;;;;;11.40;99.90;;;;;;1885079;76;20175;-73
2021/09/30 03:47:33;;;;;;;;;;;11.30;99.90;;;;;;1906162;74;20175;-72
2021/09/30 03:49:59;;;;;;;;;;;11.20;99.90;;;;;;1891390;74;20420;-72
2021/09/30 03:55:20;;;;;;;;;;;11.20;99.90;;;;;;1878534;76;20179;-74
2021/09/30 04:00:06;;;;;;;;;;;11.30;99.90;;;;;;1877408;73;20199;-72
2021/09/30 04:02:33;;;;;;;;;;;11.20;99.90;;;;;;1853778;76;20185;-73
2021/09/30 04:05:00;;;;;;;;;;;11.20;99.90;;;;;;1856764;76;20126;-73
2021/09/30 04:07:27;;;;;;;;;;;11.20;99.90;;;;;;1854232;76;20173;-73
2021/09/30 04:09:54;;;;;;;;;;;11.20;99.90;;;;;;1859368;76;20157;-73
2021/09/30 04:12:21;;;;;;;;;;;11.20;99.90;;;;;;1866062;76;20210;-73
2021/09/30 04:14:48;;;;;;;;;;;11.20;99.90;;;;;;1871908;76;20171;-73
2021/09/30 04:17:15;;;;;;;;;;;11.20;99.90;;;;;;1856818;77;20138;-73
2021/09/30 04:19:41;;;;;;;;;;;11.20;99.90;;;;;;1861187;77;20212;-73
2021/09/30 04:22:08;;;;;;;;;;;11.30;99.90;;;;;;1861400;77;20168;-73
2021/09/30 04:24:35;;;;;;;;;;;11.20;99.90;;;;;;1861461;77;20201;-73
2021/09/30 04:27:02;;;;;;;;;;;11.20;99.90;;;;;;1860744;77;20187;-73
2021/09/30 04:29:29;;;;;;;;;;;11.20;99.90;;;;;;1861636;76;20315;-73
2021/09/30 04:31:56;;;;;;;;;;;11.20;99.90;;;;;;1859090;77;20451;-73
2021/09/30 04:34:23;;;;;;;;;;;11.20;99.90;;;;;;1860407;76;20130;-73
2021/09/30 04:36:50;;;;;;;;;;;11.10;99.90;;;;;;1861462;77;20165;-73
2021/09/30 04:39:17;;;;;;;;;;;11.20;99.90;;;;;;1867579;76;20139;-73
2021/09/30 04:41:45;;;;;;;;;;;11.20;99.90;;;;;;1860848;77;20209;-73
2021/09/30 04:44:12;;;;;;;;;;;11.10;99.90;;;;;;1860412;76;20250;-73
2021/09/30 04:46:39;;;;;;;;;;;11.20;99.90;;;;;;1842301;77;20164;-73
2021/09/30 04:49:06;;;;;;;;;;;11.20;99.90;;;;;;1857056;76;20169;-74
2021/09/30 04:51:33;;;;;;;;;;;11.20;99.90;;;;;;1862399;76;20232;-73
2021/09/30 04:54:00;;;;;;;;;;;11.20;99.90;;;;;;1859401;76;20155;-73
2021/09/30 04:56:28;;;;;;;;;;;11.20;99.90;;;;;;1837160;76;20222;-73
2021/09/30 04:58:55;;;;;;;;;;;11.20;99.90;;;;;;1855121;76;20126;-73
2021/09/30 05:01:22;;;;;;;;;;;11.20;99.90;;;;;;1852989;76;20215;-73
2021/09/30 05:03:49;;;;;;;;;;;11.20;99.90;;;;;;1862515;76;20213;-74
2021/09/30 05:06:16;;;;;;;;;;;11.20;99.90;;;;;;1857774;76;20182;-73
2021/09/30 05:08:45;;;;;;;;;;;11.20;99.90;;;;;;1859781;76;20185;-73
2021/09/30 05:11:11;;;;;;;;;;;11.10;99.90;;;;;;1860579;76;20174;-74
2021/09/30 05:13:39;;;;;;;;;;;11.10;99.90;;;;;;1854438;77;20226;-73
2021/09/30 05:16:07;;;;;;;;;;;11.10;99.90;;;;;;1854326;76;20231;-73
2021/09/30 05:18:34;;;;;;;;;;;11.10;99.90;;;;;;1861934;76;20239;-71
2021/09/30 05:21:02;;;;;;;;;;;11.10;99.90;;;;;;1891264;76;20489;-72
2021/09/30 05:23:29;;;;;;;;;;;11.10;99.90;;;;;;1875445;76;20183;-72
2021/09/30 05:25:56;;;;;;;;;;;11.10;99.90;;;;;;1860945;76;20438;-72
2021/09/30 05:28:23;;;;;;;;;;;11.10;99.90;;;;;;1860584;76;20223;-72
2021/09/30 05:30:50;;;;;;;;;;;11.10;99.90;;;;;;1856447;76;20386;-73
2021/09/30 05:33:17;;;;;;;;;;;11.20;99.90;;;;;;1860466;76;20114;-73
2021/09/30 05:35:43;;;;;;;;;;;11.20;99.90;;;;;;1860314;76;20195;-74
2021/09/30 05:38:11;;;;;;;;;;;11.20;99.90;;;;;;1860667;76;20290;-74
2021/09/30 05:40:39;;;;;;;;;;;11.20;99.90;;;;;;1864875;76;20193;-74
2021/09/30 05:43:08;;;;;;;;;;;11.20;99.90;;;;;;1859669;76;20173;-74
2021/09/30 05:45:41;;;;;;;;;;;11.10;99.90;;;;;;1878714;76;20224;-75
2021/09/30 05:48:05;;;;;;;;;;;11.10;99.90;;;;;;1871391;76;20449;-74
2021/09/30 05:50:32;;;;;;;;;;;11.20;99.90;;;;;;1879564;76;20174;-74
2021/09/30 05:52:58;;;;;;;;;;;11.10;99.90;;;;;;1857573;76;20122;-72
2021/09/30 05:55:25;;;;;;;;;;;11.10;99.90;;;;;;1871681;76;20256;-73
2021/09/30 05:57:52;;;;;;;;;;;11.20;99.90;;;;;;1866352;76;20209;-73
2021/09/30 06:04:26;;;;;;;;;;;11.10;99.90;;;;;;1881838;76;20260;-72
2021/09/30 06:11:17;;;;;;;;;;;11.20;99.90;;;;;;1864648;76;20148;-75
2021/09/30 06:13:56;;;;;;;;;;;11.10;99.90;;;;;;1846308;76;20519;-73
2021/09/30 06:16:12;;;;;;;;;;;11.10;99.90;;;;;;1846352;76;20166;-74
2021/09/30 06:18:38;;;;;;;;;;;11.10;99.90;;;;;;1856937;76;20173;-73
2021/09/30 06:21:05;;;;;;;;;;;11.20;99.90;;;;;;1853784;76;20124;-72
2021/09/30 06:23:32;;;;;;;;;;;11.20;99.90;;;;;;1853870;76;20184;-71
2021/09/30 06:25:59;;;;;;;;;;;11.10;99.90;;;;;;1860739;76;20194;-71
2021/09/30 06:28:26;;;;;;;;;;;11.20;99.90;;;;;;1853680;76;20220;-72
2021/09/30 06:30:53;;;;;;;;;;;11.20;99.90;;;;;;1844351;77;20175;-70
2021/09/30 06:33:19;;;;;;;;;;;11.20;99.90;;;;;;1863565;76;20117;-71
2021/09/30 06:35:46;;;;;;;;;;;11.20;99.90;;;;;;1858907;76;20232;-71
2021/09/30 06:38:13;;;;;;;;;;;11.20;99.90;;;;;;1857090;76;20913;-71
2021/09/30 06:40:40;;;;;;;;;;;11.30;99.90;;;;;;1852914;76;20196;-71
2021/09/30 06:43:07;;;;;;;;;;;11.30;99.90;;;;;;1855586;76;20180;-72
2021/09/30 06:45:34;;;;;;;;;;;11.30;99.90;;;;;;1862830;76;20423;-72
2021/09/30 06:48:00;;;;;;;;;;;11.30;99.90;;;;;;1855002;76;20177;-72
2021/09/30 06:50:27;;;;;;;;;;;11.30;99.90;;;;;;1856753;76;20181;-72
2021/09/30 06:52:54;;;;;;;;;;;11.40;99.90;;;;;;1858946;76;20271;-72
2021/09/30 06:55:21;;;;;;;;;;;11.50;99.90;;;;;;1854711;76;20541;-71
2021/09/30 06:57:50;;;;;;;;;;;11.50;99.90;;;;;;1855825;76;20130;-71
2021/09/30 07:00:17;;;;;;;;;;;11.50;99.90;;;;;;1856839;76;20219;-73
2021/09/30 07:02:44;;;;;;;;;;;11.50;99.90;;;;;;1858366;76;20245;-73
2021/09/30 07:05:11;;;;;;;;;;;11.50;99.90;;;;;;1856274;76;20207;-73
2021/09/30 07:07:38;;;;;;;;;;;11.50;99.90;;;;;;1855553;76;20122;-73
2021/09/30 07:10:05;;;;;;;;;;;11.60;99.90;;;;;;1860106;76;20474;-73
2021/09/30 07:12:32;;;;;;;;;;;11.60;99.90;;;;;;1857075;76;20410;-72
2021/09/30 07:14:59;;;;;;;;;;;11.60;99.90;;;;;;1859500;76;20173;-72
2021/09/30 07:17:28;;;;;;;;;;;11.60;99.90;;;;;;1859816;76;20416;-72
2021/09/30 07:19:55;;;;;;;;;;;11.60;99.90;;;;;;1872954;76;20127;-71
2021/09/30 07:22:21;;;;;;;;;;;11.70;99.90;;;;;;1859418;76;20190;-72
2021/09/30 07:24:48;;;;;;;;;;;11.80;99.90;;;;;;1861424;76;20122;-73
2021/09/30 07:27:15;;;;;;;;;;;11.80;99.90;;;;;;1849712;77;20142;-73
2021/09/30 07:29:42;;;;;;;;;;;11.80;99.90;;;;;;1857682;77;20216;-73
2021/09/30 07:32:09;;;;;;;;;;;11.80;99.90;;;;;;1867792;76;20116;-72
2021/09/30 07:34:36;;;;;;;;;;;11.90;99.90;;;;;;1859670;77;20276;-73
2021/09/30 07:37:03;;;;;;;;;;;11.90;99.90;;;;;;1870327;76;20130;-73
2021/09/30 07:39:30;;;;;;;;;;;12.00;99.90;;;;;;1861648;77;20178;-73
2021/09/30 07:41:57;;;;;;;;;;;12.00;99.90;;;;;;1861755;77;20839;-73
2021/09/30 07:44:25;;;;;;;;;;;12.00;99.90;;;;;;1861580;76;20493;-73
2021/09/30 07:46:53;;;;;;;;;;;12.10;99.90;;;;;;1873884;76;20160;-71
2021/09/30 07:49:20;;;;;;;;;;;12.10;99.90;;;;;;1859083;77;20216;-73
2021/09/30 07:51:47;;;;;;;;;;;12.10;99.90;;;;;;1861294;77;20114;-74
2021/09/30 07:54:14;;;;;;;;;;;12.10;99.90;;;;;;1858067;76;20196;-74
2021/09/30 07:56:41;;;;;;;;;;;12.10;99.90;;;;;;1850988;77;20434;-74
2021/09/30 07:59:07;;;;;;;;;;;12.20;99.90;;;;;;1852299;76;20171;-75
2021/09/30 08:01:34;;;;;;;;;;;12.30;99.90;;;;;;1851976;76;20459;-74
2021/09/30 08:04:03;;;;;;;;;;;12.30;99.90;;;;;;1860126;76;20392;-75
2021/09/30 08:06:30;;;;;;;;;;;12.40;99.90;;;;;;1860423;76;20155;-74
2021/09/30 08:08:57;;;;;;;;;;;12.40;99.90;;;;;;1868093;76;20143;-74
2021/09/30 08:11:27;;;;;;;;;;;12.50;99.90;;;;;;1868316;76;20470;-74
2021/09/30 08:13:53;;;;;;;;;;;12.50;99.90;;;;;;1874028;76;20150;-75
2021/09/30 08:16:21;;;;;;;;;;;12.50;99.90;;;;;;1831653;76;20290;-74
2021/09/30 08:18:48;;;;;;;;;;;12.60;99.90;;;;;;1860860;76;21193;-75
2021/09/30 08:21:15;;;;;;;;;;;12.60;99.90;;;;;;1869866;76;20120;-74
2021/09/30 08:23:43;;;;;;;;;;;12.70;99.90;;;;;;1854808;76;20489;-74
2021/09/30 08:26:11;;;;;;;;;;;12.70;99.90;;;;;;1852193;76;20284;-74
2021/09/30 08:28:38;;;;;;;;;;;12.70;99.90;;;;;;1856891;76;20122;-73
2021/09/30 08:31:05;;;;;;;;;;;12.80;99.90;;;;;;1874863;76;20215;-74
2021/09/30 08:33:32;;;;;;;;;;;12.80;99.90;;;;;;1854237;76;20123;-74
2021/09/30 08:35:59;;;;;;;;;;;12.90;99.90;;;;;;1864254;76;20182;-74
2021/09/30 08:38:26;;;;;;;;;;;12.90;99.90;;;;;;1866893;76;20173;-73
2021/09/30 08:40:53;;;;;;;;;;;12.90;99.90;;;;;;1873900;76;20185;-74
2021/09/30 08:43:20;;;;;;;;;;;12.90;99.90;;;;;;1842340;76;20385;-74
2021/09/30 08:45:47;;;;;;;;;;;13.00;99.90;;;;;;1852316;76;20184;-75
2021/09/30 08:48:14;;;;;;;;;;;13.00;99.90;;;;;;1842455;77;20449;-75
2021/09/30 08:50:41;;;;;;;;;;;13.10;99.90;;;;;;1877357;76;20412;-73
2021/09/30 08:53:08;;;;;;;;;;;13.10;99.90;;;;;;1869711;76;20185;-74
2021/09/30 08:55:36;;;;;;;;;;;13.20;99.90;;;;;;1871230;76;20176;-74
2021/09/30 08:58:03;;;;;;;;;;;13.30;99.90;;;;;;1862116;76;20227;-74
2021/09/30 09:00:31;;;;;;;;;;;13.30;99.90;;;;;;1865072;76;20181;-74
2021/09/30 09:02:58;;;;;;;;;;;13.30;99.90;;;;;;1867124;76;20167;-74
2021/09/30 09:05:25;;;;;;;;;;;13.40;99.90;;;;;;1878701;76;20527;-74
2021/09/30 09:07:56;;;;;;;;;;;13.40;99.90;;;;;;1877544;76;20543;-74
2021/09/30 09:10:23;;;;;;;;;;;13.50;99.90;;;;;;1871834;76;20181;-74
2021/09/30 09:13:07;;;;;;;;;;;13.60;99.90;;;;;;1857588;76;20239;-74
2021/09/30 09:15:47;;;;;;;;;;;13.60;99.90;;;;;;1864808;76;20439;-74
2021/09/30 09:18:21;;;;;;;;;;;13.60;99.90;;;;;;1874614;76;20208;-74
2021/09/30 09:20:49;;;;;;;;;;;13.70;99.90;;;;;;1859443;76;20177;-74
2021/09/30 09:23:16;;;;;;;;;;;13.80;99.90;;;;;;1869062;76;20159;-74
2021/09/30 09:25:43;;;;;;;;;;;13.80;99.90;;;;;;1878833;76;20163;-74
2021/09/30 09:28:10;;;;;;;;;;;14.00;99.90;;;;;;1864589;76;20144;-73
2021/09/30 09:30:42;;;;;;;;;;;14.00;99.90;;;;;;1892469;76;20136;-73
2021/09/30 09:33:10;;;;;;;;;;;14.00;99.90;;;;;;1880375;76;20159;-73
2021/09/30 09:36:03;;;;;;;;;;;14.20;99.90;;;;;;1863717;76;20228;-74
2021/09/30 09:38:34;;;;;;;;;;;14.30;99.90;;;;;;1876657;76;20174;-73
2021/09/30 09:41:02;;;;;;;;;;;14.40;99.90;;;;;;1860682;76;20146;-73
2021/09/30 09:43:31;;;;;;;;;;;14.40;99.90;;;;;;1840388;76;20127;-72
2021/09/30 09:45:59;;;;;;;;;;;14.50;99.90;;;;;;1882555;76;20162;-73
2021/09/30 09:48:26;;;;;;;;;;;14.70;99.90;;;;;;1894292;76;20275;-73
2021/09/30 09:50:53;;;;;;;;;;;14.80;99.90;;;;;;1864830;76;20194;-73
2021/09/30 09:53:21;;;;;;;;;;;14.90;99.90;;;;;;1857602;76;20137;-73
2021/09/30 09:55:48;;;;;;;;;;;15.00;99.90;;;;;;1878833;76;20156;-73
2021/09/30 09:58:17;;;;;;;;;;;15.00;99.90;;;;;;1874347;76;20163;-73
2021/09/30 10:00:52;;;;;;;;;;;15.10;99.90;;;;;;1888564;74;20175;-74
2021/09/30 10:03:22;;;;;;;;;;;15.20;99.90;;;;;;1888714;74;20211;-74
2021/09/30 10:05:49;;;;;;;;;;;15.20;99.90;;;;;;1896286;76;20190;-74
2021/09/30 10:08:16;;;;;;;;;;;15.30;99.90;;;;;;1881911;75;20158;-73
2021/09/30 10:10:44;;;;;;;;;;;15.40;99.90;;;;;;1892366;76;20214;-74
2021/09/30 10:13:11;;;;;;;;;;;15.50;99.90;;;;;;1895095;75;20179;-73
2021/09/30 10:15:38;;;;;;;;;;;15.60;99.90;;;;;;1897613;76;20158;-74
2021/09/30 10:18:07;;;;;;;;;;;15.80;99.90;;;;;;1891856;76;20201;-73
2021/09/30 10:20:34;;;;;;;;;;;15.80;99.90;;;;;;1882859;76;20117;-74
2021/09/30 10:23:02;;;;;;;;;;;15.90;99.90;;;;;;1894459;74;20201;-74
2021/09/30 10:25:37;;;;;;;;;;;15.80;99.90;;;;;;1886024;75;20457;-74
2021/09/30 10:28:06;;;;;;;;;;;15.80;99.90;;;;;;1893599;76;20186;-73
2021/09/30 10:30:40;;;;;;;;;;;15.90;99.90;;;;;;1890080;74;20270;-73
2021/09/30 10:33:09;;;;;;;;;;;16.00;99.90;;;;;;1895929;74;20170;-74
2021/09/30 10:35:37;;;;;;;;;;;16.00;99.90;;;;;;1893848;74;20172;-74
2021/09/30 10:38:21;;;;;;;;;;;15.90;99.90;;;;;;1893368;76;20420;-73
2021/09/30 10:41:06;;;;;;;;;;;15.90;99.90;;;;;;1886542;76;20189;-71
2021/09/30 10:43:34;;;;;;;;;;;16.00;99.90;;;;;;1882053;76;20211;-72
2021/09/30 10:46:01;;;;;;;;;;;16.10;99.90;;;;;;1897270;76;20201;-72
2021/09/30 10:48:30;;;;;;;;;;;16.30;99.90;;;;;;1896644;76;20405;-72
2021/09/30 10:50:58;;;;;;;;;;;16.40;99.90;;;;;;1897080;76;20503;-72
2021/09/30 10:53:30;;;;;;;;;;;16.40;99.90;;;;;;1895577;75;20468;-71
2021/09/30 10:55:56;;;;;;;;;;;16.60;99.90;;;;;;1865775;76;20435;-72
2021/09/30 10:58:24;;;;;;;;;;;16.50;99.90;;;;;;1895260;74;20175;-72
2021/09/30 11:00:52;;;;;;;;;;;16.20;99.90;;;;;;1896722;74;20182;-71
2021/09/30 11:03:23;;;;;;;;;;;16.10;99.90;;;;;;1897284;76;20508;-72
2021/09/30 11:06:08;;;;;;;;;;;16.00;99.90;;;;;;1895914;76;20182;-72
2021/09/30 11:08:35;;;;;;;;;;;15.90;99.90;;;;;;1895583;74;20108;-72
2021/09/30 11:11:06;;;;;;;;;;;15.80;99.90;;;;;;1895356;74;20425;-71
2021/09/30 11:13:50;;;;;;;;;;;15.60;99.90;;;;;;1890258;76;20124;-72
2021/09/30 11:16:18;;;;;;;;;;;15.60;99.90;;;;;;1890657;74;20806;-72
2021/09/30 11:18:47;;;;;;;;;;;15.50;99.90;;;;;;1896542;74;20473;-72
2021/09/30 11:21:34;;;;;;;;;;;15.60;99.90;;;;;;1893647;76;20151;-73
2021/09/30 11:24:03;;;;;;;;;;;15.70;99.90;;;;;;1897416;76;20119;-72
2021/09/30 11:26:32;;;;;;;;;;;16.00;99.90;;;;;;1893714;75;20132;-71
2021/09/30 11:29:00;;;;;;;;;;;16.00;99.90;;;;;;1893856;76;20253;-73
2021/09/30 11:31:31;;;;;;;;;;;16.00;99.90;;;;;;1885195;76;20112;-73
2021/09/30 11:33:59;;;;;;;;;;;16.30;99.90;;;;;;1886585;76;20171;-73
2021/09/30 11:36:30;;;;;;;;;;;16.60;99.90;;;;;;1892037;76;20191;-71
2021/09/30 11:38:57;;;;;;;;;;;16.80;99.90;;;;;;1909034;73;20108;-71
2021/09/30 11:41:28;;;;;;;;;;;16.80;99.90;;;;;;1910503;74;20155;-71
2021/09/30 11:43:55;;;;;;;;;;;17.00;99.90;;;;;;1876755;76;20171;-72
2021/09/30 11:46:30;;;;;;;;;;;17.20;99.90;;;;;;1906330;74;20126;-71
2021/09/30 11:48:58;;;;;;;;;;;17.30;99.90;;;;;;1890739;76;20116;-71
2021/09/30 11:51:42;;;;;;;;;;;17.40;99.90;;;;;;1895193;76;20209;-71
2021/09/30 11:54:10;;;;;;;;;;;17.50;99.90;;;;;;1896129;74;20171;-72
2021/09/30 11:56:38;;;;;;;;;;;17.50;99.90;;;;;;1891736;74;20275;-75
2021/09/30 11:59:06;;;;;;;;;;;17.40;99.90;;;;;;1904459;74;20167;-73
2021/09/30 12:01:37;;;;;;;;;;;17.20;99.90;;;;;;1897012;75;20472;-74
2021/09/30 12:04:05;;;;;;;;;;;17.00;99.90;;;;;;1885225;75;20447;-73
2021/09/30 12:06:45;;;;;;;;;;;16.80;99.90;;;;;;1873867;76;20108;-75
2021/09/30 12:09:12;;;;;;;;;;;16.50;99.90;;;;;;1895045;74;20280;-71
2021/09/30 12:11:41;;;;;;;;;;;16.80;99.90;;;;;;1894496;74;20175;-71
2021/09/30 12:14:09;;;;;;;;;;;17.20;99.90;;;;;;1897135;75;20174;-71
2021/09/30 12:16:37;;;;;;;;;;;17.20;99.90;;;;;;1897830;74;20197;-71
2021/09/30 12:19:04;;;;;;;;;;;16.80;99.90;;;;;;1896547;74;20104;-71
2021/09/30 12:21:41;;;;;;;;;;;16.60;99.90;;;;;;1903232;74;20209;-71
2021/09/30 12:24:08;;;;;;;;;;;16.40;99.90;;;;;;1902188;74;20200;-71
2021/09/30 12:26:36;;;;;;;;;;;16.60;99.90;;;;;;1927926;74;20192;-71
2021/09/30 12:29:02;;;;;;;;;;;17.00;99.90;;;;;;1919183;74;20123;-71
2021/09/30 12:31:32;;;;;;;;;;;17.30;99.90;;;;;;1873363;75;20162;-71
2021/09/30 12:33:59;;;;;;;;;;;17.50;99.90;;;;;;1896410;76;20185;-73
2021/09/30 12:36:26;;;;;;;;;;;17.80;99.90;;;;;;1902465;75;20148;-73
2021/09/30 12:38:57;;;;;;;;;;;18.20;99.90;;;;;;1901976;74;20095;-71
2021/09/30 12:41:24;;;;;;;;;;;18.50;99.90;;;;;;1919020;74;20176;-73
2021/09/30 12:43:50;;;;;;;;;;;18.50;99.90;;;;;;1909285;74;20154;-72
2021/09/30 12:46:22;;;;;;;;;;;18.50;99.90;;;;;;1926366;74;20403;-71
2021/09/30 12:48:51;;;;;;;;;;;18.10;99.90;;;;;;1934076;73;20192;-72
2021/09/30 12:51:16;;;;;;;;;;;17.70;99.90;;;;;;1934440;74;20131;-73
2021/09/30 12:53:50;;;;;;;;;;;17.40;99.90;;;;;;1912971;74;20124;-72
2021/09/30 12:56:18;;;;;;;;;;;17.10;99.90;;;;;;1908751;74;20200;-74
2021/09/30 12:58:47;;;;;;;;;;;16.90;99.90;;;;;;1900375;74;20147;-73
2021/09/30 13:01:28;;;;;;;;;;;16.80;99.90;;;;;;1894022;74;20421;-73
2021/09/30 13:04:08;;;;;;;;;;;16.70;99.90;;;;;;1882963;76;20133;-73
2021/09/30 13:06:35;;;;;;;;;;;16.50;99.90;;;;;;1891548;74;20206;-73
2021/09/30 13:09:02;;;;;;;;;;;16.50;99.90;;;;;;1911140;73;20218;-73
2021/09/30 13:11:30;;;;;;;;;;;16.50;99.90;;;;;;1887268;75;20164;-73
2021/09/30 13:14:14;;;;;;;;;;;16.50;99.90;;;;;;1859882;77;20153;-73
2021/09/30 13:16:41;;;;;;;;;;;17.00;99.90;;;;;;1888497;74;20202;-73
2021/09/30 13:19:09;;;;;;;;;;;17.60;99.90;;;;;;1896534;76;20174;-72
2021/09/30 13:21:49;;;;;;;;;;;18.10;99.90;;;;;;1893582;74;20210;-73
2021/09/30 13:24:16;;;;;;;;;;;18.30;99.90;;;;;;1826805;74;20246;-73
2021/09/30 13:26:43;;;;;;;;;;;18.40;98.40;;;;;;1902559;74;20370;-73
2021/09/30 13:29:10;;;;;;;;;;;18.40;97.90;;;;;;1916035;75;20104;-73
2021/09/30 13:31:36;;;;;;;;;;;18.50;98.50;;;;;;1897916;76;20460;-73
2021/09/30 13:34:03;;;;;;;;;;;18.50;96.20;;;;;;1897878;76;20162;-73
2021/09/30 13:36:32;;;;;;;;;;;18.50;95.50;;;;;;1897989;76;20154;-73
2021/09/30 13:38:59;;;;;;;;;;;18.80;97.20;;;;;;1897381;74;20179;-72
2021/09/30 13:41:26;;;;;;;;;;;18.80;95.80;;;;;;1896726;76;20397;-72
2021/09/30 13:43:53;;;;;;;;;;;18.70;95.70;;;;;;1897365;74;20186;-72
2021/09/30 13:46:20;;;;;;;;;;;18.70;96.60;;;;;;1901628;74;20150;-71
2021/09/30 13:48:47;;;;;;;;;;;18.90;96.70;;;;;;1895790;74;20508;-73
2021/09/30 13:51:13;;;;;;;;;;;19.20;97.00;;;;;;1894063;76;20194;-72
2021/09/30 13:53:40;;;;;;;;;;;19.30;95.90;;;;;;1894258;74;20496;-74
2021/09/30 13:56:07;;;;;;;;;;;19.30;95.80;;;;;;1897846;74;20180;-72
2021/09/30 13:58:35;;;;;;;;;;;19.20;95.50;;;;;;1884203;74;20169;-74
2021/09/30 14:01:02;;;;;;;;;;;19.30;96.10;;;;;;1891255;74;20171;-73
2021/09/30 14:03:29;;;;;;;;;;;19.20;95.90;;;;;;1892445;74;20213;-73
2021/09/30 14:05:58;;;;;;;;;;;18.90;96.50;;;;;;1894629;74;20230;-73
2021/09/30 14:08:28;;;;;;;;;;;19.00;96.30;;;;;;1892078;74;20117;-72
2021/09/30 14:10:54;;;;;;;;;;;18.60;97.10;;;;;;1895490;74;20127;-72
2021/09/30 14:13:21;;;;;;;;;;;18.20;97.00;;;;;;1893479;74;20158;-73
2021/09/30 14:15:47;;;;;;;;;;;17.50;98.00;;;;;;1896730;74;20182;-72
2021/09/30 14:18:14;;;;;;;;;;;17.20;99.20;;;;;;1894555;74;20125;-72
2021/09/30 14:20:41;;;;;;;;;;;17.10;99.90;;;;;;1896692;74;20380;-72
2021/09/30 14:23:08;;;;;;;;;;;16.90;99.90;;;;;;1893526;74;20171;-72
2021/09/30 14:25:35;;;;;;;;;;;16.80;99.90;;;;;;1894448;74;20132;-72
2021/09/30 14:28:02;;;;;;;;;;;16.70;99.90;;;;;;1890748;74;20175;-72
2021/09/30 14:30:28;;;;;;;;;;;16.70;99.90;;;;;;1886596;74;20120;-72
2021/09/30 14:32:55;;;;;;;;;;;16.60;99.90;;;;;;1886482;74;20139;-71
2021/09/30 14:35:22;;;;;;;;;;;16.50;99.90;;;;;;1889294;75;20230;-72
2021/09/30 14:37:49;;;;;;;;;;;16.60;99.90;;;;;;1888939;76;20232;-72
2021/09/30 14:40:16;;;;;;;;;;;16.50;99.90;;;;;;1884925;74;20236;-72
2021/09/30 14:42:43;;;;;;;;;;;16.40;99.90;;;;;;1890111;74;20163;-71
2021/09/30 14:45:09;;;;;;;;;;;16.60;99.90;;;;;;1890312;76;20202;-72
2021/09/30 14:47:36;;;;;;;;;;;16.90;99.90;;;;;;1888382;74;20615;-72
2021/09/30 14:50:03;;;;;;;;;;;17.00;99.90;;;;;;1883632;74;20125;-73
2021/09/30 14:52:30;;;;;;;;;;;17.10;99.90;;;;;;1883886;74;20175;-71
2021/09/30 14:54:57;;;;;;;;;;;17.00;99.90;;;;;;1886909;74;20471;-71
2021/09/30 14:57:24;;;;;;;;;;;17.10;99.90;;;;;;1883865;74;20125;-72
2021/09/30 14:59:50;;;;;;;;;;;17.20;99.90;;;;;;1887816;74;20472;-73
2021/09/30 15:02:17;;;;;;;;;;;17.30;99.90;;;;;;1886687;74;20150;-72
2021/09/30 15:04:44;;;;;;;;;;;17.10;99.90;;;;;;1895893;74;20496;-72
2021/09/30 15:07:11;;;;;;;;;;;17.00;99.90;;;;;;1891210;76;20175;-72
2021/09/30 15:09:38;;;;;;;;;;;16.80;99.90;;;;;;1889710;74;20437;-72
2021/09/30 15:12:05;;;;;;;;;;;16.70;99.90;;;;;;1887286;74;20467;-72
2021/09/30 15:14:32;;;;;;;;;;;16.60;99.90;;;;;;1894683;76;20183;-72
2021/09/30 15:17:10;;;;;;;;;;;16.40;99.90;;;;;;1883669;76;20163;-72
2021/09/30 15:19:47;;;;;;;;;;;16.40;99.90;;;;;;1886242;74;20182;-72
2021/09/30 15:22:01;;;;;;;;;;;16.40;99.90;;;;;;1888322;74;20174;-72
2021/09/30 15:24:29;;;;;;;;;;;16.40;99.90;;;;;;1891616;75;20262;-72
2021/09/30 15:26:55;;;;;;;;;;;16.30;99.90;;;;;;1891600;74;20209;-72
2021/09/30 15:29:22;;;;;;;;;;;16.30;99.90;;;;;;1891326;74;20167;-72
2021/09/30 15:31:49;;;;;;;;;;;16.30;99.90;;;;;;1890053;74;20211;-72
2021/09/30 15:34:18;;;;;;;;;;;16.30;99.90;;;;;;1887021;74;20156;-72
2021/09/30 15:36:45;;;;;;;;;;;16.20;99.90;;;;;;1894351;74;20210;-72
2021/09/30 15:39:12;;;;;;;;;;;16.10;99.90;;;;;;1897348;74;20179;-72
2021/09/30 15:41:39;;;;;;;;;;;16.10;99.90;;;;;;1892939;74;20129;-71
2021/09/30 15:44:06;;;;;;;;;;;16.00;99.90;;;;;;1890907;74;20504;-72
2021/09/30 15:46:33;;;;;;;;;;;16.00;99.90;;;;;;1890084;74;20172;-72
2021/09/30 15:49:00;;;;;;;;;;;15.90;99.90;;;;;;1890678;74;20253;-72
2021/09/30 15:51:27;;;;;;;;;;;15.80;99.90;;;;;;1895125;74;20117;-72
2021/09/30 15:53:54;;;;;;;;;;;15.80;99.90;;;;;;1892181;75;20475;-74
2021/09/30 15:56:21;;;;;;;;;;;15.70;99.90;;;;;;1885108;76;20162;-73
2021/09/30 15:58:48;;;;;;;;;;;15.70;99.90;;;;;;1890917;74;20167;-73
2021/09/30 16:01:15;;;;;;;;;;;15.70;99.90;;;;;;1883089;76;20116;-73
2021/09/30 16:03:42;;;;;;;;;;;15.70;99.90;;;;;;1890325;74;20187;-73
2021/09/30 16:06:09;;;;;;;;;;;15.70;99.90;;;;;;1889249;74;20252;-72
2021/09/30 16:08:36;;;;;;;;;;;15.70;99.90;;;;;;1886368;74;20218;-72
2021/09/30 16:11:03;;;;;;;;;;;15.70;99.90;;;;;;1887992;74;20228;-72
2021/09/30 16:13:30;;;;;;;;;;;15.60;99.90;;;;;;1890027;74;20372;-72
2021/09/30 16:15:56;;;;;;;;;;;15.60;99.90;;;;;;1888175;74;20120;-72
2021/09/30 16:18:23;;;;;;;;;;;15.50;99.90;;;;;;1883099;74;20453;-72
2021/09/30 16:20:50;;;;;;;;;;;15.50;99.90;;;;;;1883846;74;20221;-72
2021/09/30 16:23:17;;;;;;;;;;;15.40;99.90;;;;;;1900650;74;20401;-73
2021/09/30 16:25:45;;;;;;;;;;;15.50;99.90;;;;;;1891212;76;20123;-71
2021/09/30 16:28:12;;;;;;;;;;;15.40;99.90;;;;;;1889359;75;20225;-72
2021/09/30 16:30:38;;;;;;;;;;;15.40;99.90;;;;;;1884659;74;20197;-72
2021/09/30 16:33:05;;;;;;;;;;;15.40;99.90;;;;;;1894374;74;20132;-72
2021/09/30 16:35:32;;;;;;;;;;;15.40;99.90;;;;;;1890739;74;20167;-72
2021/09/30 16:37:59;;;;;;;;;;;15.40;99.90;;;;;;1886623;75;20237;-72
2021/09/30 16:40:26;;;;;;;;;;;15.30;99.90;;;;;;1885014;74;20151;-72
2021/09/30 16:42:53;;;;;;;;;;;15.30;99.90;;;;;;1887135;75;20182;-73
2021/09/30 16:45:21;;;;;;;;;;;15.20;99.90;;;;;;1888660;74;20128;-72
2021/09/30 16:47:48;;;;;;;;;;;15.20;99.90;;;;;;1886169;74;20500;-72
2021/09/30 16:50:15;;;;;;;;;;;15.30;99.90;;;;;;1884796;74;20260;-72
2021/09/30 16:52:44;;;;;;;;;;;15.30;99.90;;;;;;1885368;75;20178;-72